sensor_id;sensor_type;location;lat;lon;timestamp;pressure;altitude;pressure_sealevel;temperature;humidity
39699;BME280;25372;50.582;12.250;2023-05-07T00:06:36;100201.22;;;7.78;88.96
39699;BME280;25372;50.582;12.250;2023-05-07T00:16:58;100199.00;;;7.88;89.19
39699;BME280;25372;50.582;12.250;2023-05-07T00:27:19;100196.41;;;7.88;89.04
39699;BME280;25372;50.582;12.250;2023-05-07T00:37:41;100203.28;;;7.71;89.87
39699;BME280;25372;50.582;12.250;2023-05-07T00:48:02;100201.13;;;7.60;89.60
39699;BME280;25372;50.582;12.250;2023-05-07T00:58:25;100190.47;;;7.65;89.39
39699;BME280;25372;50.582;12.250;2023-05-07T01:08:46;100188.06;;;7.60;88.62
39699;BME280;25372;50.582;12.250;2023-05-07T01:19:09;100203.19;;;7.53;88.11
39699;BME280;25372;50.582;12.250;2023-05-07T01:29:35;100198.25;;;7.47;87.28
39699;BME280;25372;50.582;12.250;2023-05-07T01:39:56;100210.34;;;7.69;86.50
39699;BME280;25372;50.582;12.250;2023-05-07T01:50:20;100218.97;;;7.71;86.34
39699;BME280;25372;50.582;12.250;2023-05-07T02:00:41;100209.53;;;7.67;85.21
39699;BME280;25372;50.582;12.250;2023-05-07T02:11:03;100206.50;;;7.76;85.82
39699;BME280;25372;50.582;12.250;2023-05-07T02:21:25;100217.88;;;7.75;85.24
39699;BME280;25372;50.582;12.250;2023-05-07T02:31:48;100220.50;;;7.75;84.85
39699;BME280;25372;50.582;12.250;2023-05-07T02:42:10;100218.44;;;7.82;84.88
39699;BME280;25372;50.582;12.250;2023-05-07T02:52:32;100215.00;;;7.81;85.31
39699;BME280;25372;50.582;12.250;2023-05-07T03:02:53;100213.31;;;7.80;84.20
39699;BME280;25372;50.582;12.250;2023-05-07T03:13:15;100200.56;;;7.73;85.53
39699;BME280;25372;50.582;12.250;2023-05-07T03:23:37;100212.25;;;7.84;85.23
39699;BME280;25372;50.582;12.250;2023-05-07T03:33:59;100216.47;;;7.68;84.08
39699;BME280;25372;50.582;12.250;2023-05-07T03:44:20;100228.00;;;7.83;84.09
39699;BME280;25372;50.582;12.250;2023-05-07T03:54:44;100234.91;;;7.84;83.89
39699;BME280;25372;50.582;12.250;2023-05-07T04:05:08;100236.91;;;7.79;85.27
39699;BME280;25372;50.582;12.250;2023-05-07T04:15:33;100233.16;;;7.84;83.25
39699;BME280;25372;50.582;12.250;2023-05-07T04:25:54;100245.94;;;7.91;83.10
39699;BME280;25372;50.582;12.250;2023-05-07T04:36:31;100254.69;;;7.70;83.49
39699;BME280;25372;50.582;12.250;2023-05-07T04:46:57;100274.34;;;7.79;83.12
39699;BME280;25372;50.582;12.250;2023-05-07T04:57:20;100271.63;;;7.82;82.26
39699;BME280;25372;50.582;12.250;2023-05-07T05:07:41;100282.94;;;8.02;82.44
39699;BME280;25372;50.582;12.250;2023-05-07T05:18:04;100283.88;;;8.38;81.49
39699;BME280;25372;50.582;12.250;2023-05-07T05:28:26;100284.66;;;8.40;81.10
39699;BME280;25372;50.582;12.250;2023-05-07T05:38:49;100308.22;;;8.59;79.81
39699;BME280;25372;50.582;12.250;2023-05-07T05:49:10;100317.47;;;8.66;78.25
39699;BME280;25372;50.582;12.250;2023-05-07T05:59:34;100320.63;;;8.36;79.51
39699;BME280;25372;50.582;12.250;2023-05-07T06:09:55;100337.41;;;8.11;80.18
39699;BME280;25372;50.582;12.250;2023-05-07T06:20:18;100351.94;;;8.19;79.55
39699;BME280;25372;50.582;12.250;2023-05-07T06:30:39;100340.41;;;8.23;78.27
39699;BME280;25372;50.582;12.250;2023-05-07T06:41:02;100358.84;;;8.20;78.70
39699;BME280;25372;50.582;12.250;2023-05-07T06:51:23;100373.97;;;8.53;77.11
39699;BME280;25372;50.582;12.250;2023-05-07T07:01:45;100364.34;;;8.53;78.02
39699;BME280;25372;50.582;12.250;2023-05-07T07:12:06;100356.75;;;8.47;77.16
39699;BME280;25372;50.582;12.250;2023-05-07T07:22:30;100377.00;;;8.63;76.28
39699;BME280;25372;50.582;12.250;2023-05-07T07:32:52;100381.06;;;8.30;78.47
39699;BME280;25372;50.582;12.250;2023-05-07T07:43:15;100382.28;;;8.42;76.43
39699;BME280;25372;50.582;12.250;2023-05-07T07:53:36;100383.78;;;8.48;75.79
39699;BME280;25372;50.582;12.250;2023-05-07T08:04:00;100402.47;;;8.78;74.60
39699;BME280;25372;50.582;12.250;2023-05-07T08:14:26;100403.38;;;8.77;73.87
39699;BME280;25372;50.582;12.250;2023-05-07T08:24:49;100414.75;;;8.95;74.62
39699;BME280;25372;50.582;12.250;2023-05-07T08:35:10;100411.47;;;9.09;73.31
39699;BME280;25372;50.582;12.250;2023-05-07T08:45:34;100416.13;;;9.57;71.23
39699;BME280;25372;50.582;12.250;2023-05-07T08:55:57;100430.16;;;10.43;67.73
39699;BME280;25372;50.582;12.250;2023-05-07T09:06:20;100429.47;;;9.88;70.96
39699;BME280;25372;50.582;12.250;2023-05-07T09:16:41;100438.94;;;10.08;69.93
39699;BME280;25372;50.582;12.250;2023-05-07T09:27:04;100446.88;;;10.24;71.15
39699;BME280;25372;50.582;12.250;2023-05-07T09:37:27;100442.19;;;10.29;69.82
39699;BME280;25372;50.582;12.250;2023-05-07T09:47:53;100440.97;;;10.37;69.01
39699;BME280;25372;50.582;12.250;2023-05-07T09:58:16;100447.81;;;10.05;69.33
39699;BME280;25372;50.582;12.250;2023-05-07T10:08:42;100436.66;;;11.32;63.63
39699;BME280;25372;50.582;12.250;2023-05-07T10:19:03;100448.06;;;10.68;66.64
39699;BME280;25372;50.582;12.250;2023-05-07T10:29:34;100447.00;;;11.66;64.46
39699;BME280;25372;50.582;12.250;2023-05-07T10:39:59;100445.41;;;11.16;65.51
39699;BME280;25372;50.582;12.250;2023-05-07T10:50:25;100446.78;;;10.59;67.94
39699;BME280;25372;50.582;12.250;2023-05-07T11:00:56;100430.44;;;11.94;63.42
39699;BME280;25372;50.582;12.250;2023-05-07T11:11:45;100436.44;;;11.96;64.28
39699;BME280;25372;50.582;12.250;2023-05-07T11:22:37;100435.66;;;11.18;64.37
39699;BME280;25372;50.582;12.250;2023-05-07T11:33:19;100431.88;;;11.39;64.17
39699;BME280;25372;50.582;12.250;2023-05-07T11:43:56;100427.88;;;11.93;61.14
39699;BME280;25372;50.582;12.250;2023-05-07T11:54:19;100430.38;;;12.10;61.23
39699;BME280;25372;50.582;12.250;2023-05-07T12:04:41;100423.88;;;12.16;62.45
39699;BME280;25372;50.582;12.250;2023-05-07T12:15:03;100436.75;;;12.64;61.50
39699;BME280;25372;50.582;12.250;2023-05-07T12:25:25;100435.63;;;12.96;61.24
39699;BME280;25372;50.582;12.250;2023-05-07T12:35:47;100446.09;;;12.12;61.85
39699;BME280;25372;50.582;12.250;2023-05-07T12:46:08;100445.75;;;11.87;62.77
39699;BME280;25372;50.582;12.250;2023-05-07T12:56:31;100436.28;;;12.43;61.12
39699;BME280;25372;50.582;12.250;2023-05-07T13:06:55;100428.19;;;12.61;61.64
39699;BME280;25372;50.582;12.250;2023-05-07T13:17:17;100424.13;;;13.11;60.51
39699;BME280;25372;50.582;12.250;2023-05-07T13:27:38;100428.75;;;12.51;60.74
39699;BME280;25372;50.582;12.250;2023-05-07T13:38:01;100424.28;;;12.81;61.39
39699;BME280;25372;50.582;12.250;2023-05-07T13:48:22;100415.59;;;12.93;61.21
39699;BME280;25372;50.582;12.250;2023-05-07T13:58:44;100424.84;;;12.71;61.87
39699;BME280;25372;50.582;12.250;2023-05-07T14:09:04;100417.19;;;12.96;60.42
39699;BME280;25372;50.582;12.250;2023-05-07T14:19:27;100407.00;;;13.04;58.46
39699;BME280;25372;50.582;12.250;2023-05-07T14:29:47;100407.78;;;12.50;61.37
39699;BME280;25372;50.582;12.250;2023-05-07T14:40:12;100402.03;;;12.43;61.14
39699;BME280;25372;50.582;12.250;2023-05-07T14:50:34;100388.41;;;13.33;59.20
39699;BME280;25372;50.582;12.250;2023-05-07T15:00:57;100404.00;;;12.96;58.91
39699;BME280;25372;50.582;12.250;2023-05-07T15:11:17;100420.28;;;12.61;61.32
39699;BME280;25372;50.582;12.250;2023-05-07T15:21:39;100418.97;;;12.53;59.92
39699;BME280;25372;50.582;12.250;2023-05-07T15:32:00;100418.13;;;12.38;62.09
39699;BME280;25372;50.582;12.250;2023-05-07T15:42:22;100444.13;;;12.30;61.44
39699;BME280;25372;50.582;12.250;2023-05-07T15:52:43;100432.25;;;12.37;60.14
39699;BME280;25372;50.582;12.250;2023-05-07T16:03:07;100435.34;;;12.00;62.08
39699;BME280;25372;50.582;12.250;2023-05-07T16:13:28;100444.41;;;11.80;64.94
39699;BME280;25372;50.582;12.250;2023-05-07T16:23:50;100443.81;;;11.44;63.41
39699;BME280;25372;50.582;12.250;2023-05-07T16:34:11;100457.25;;;11.40;63.96
39699;BME280;25372;50.582;12.250;2023-05-07T16:44:33;100450.75;;;10.99;65.05
39699;BME280;25372;50.582;12.250;2023-05-07T16:54:54;100461.63;;;10.76;65.21
39699;BME280;25372;50.582;12.250;2023-05-07T17:05:20;100460.94;;;11.82;62.18
39699;BME280;25372;50.582;12.250;2023-05-07T17:15:41;100470.88;;;12.08;59.77
39699;BME280;25372;50.582;12.250;2023-05-07T17:26:10;100476.41;;;11.58;60.80
39699;BME280;25372;50.582;12.250;2023-05-07T17:36:30;100495.50;;;9.96;66.19
39699;BME280;25372;50.582;12.250;2023-05-07T17:46:53;100505.50;;;9.52;68.16
39699;BME280;25372;50.582;12.250;2023-05-07T17:57:14;100498.56;;;9.15;68.27
39699;BME280;25372;50.582;12.250;2023-05-07T18:07:36;100518.31;;;8.84;68.87
39699;BME280;25372;50.582;12.250;2023-05-07T18:17:57;100524.09;;;8.52;68.91
39699;BME280;25372;50.582;12.250;2023-05-07T18:28:19;100532.91;;;8.29;70.27
39699;BME280;25372;50.582;12.250;2023-05-07T18:38:40;100532.63;;;7.93;70.79
39699;BME280;25372;50.582;12.250;2023-05-07T18:49:03;100556.69;;;7.81;72.14
39699;BME280;25372;50.582;12.250;2023-05-07T18:59:24;100566.13;;;7.63;73.63
39699;BME280;25372;50.582;12.250;2023-05-07T19:09:46;100560.41;;;7.53;72.65
39699;BME280;25372;50.582;12.250;2023-05-07T19:20:07;100563.75;;;7.34;73.78
39699;BME280;25372;50.582;12.250;2023-05-07T19:30:30;100576.38;;;7.23;74.83
39699;BME280;25372;50.582;12.250;2023-05-07T19:40:51;100583.47;;;7.19;73.58
39699;BME280;25372;50.582;12.250;2023-05-07T19:51:13;100601.41;;;7.05;73.85
39699;BME280;25372;50.582;12.250;2023-05-07T20:01:34;100607.81;;;6.96;74.83
39699;BME280;25372;50.582;12.250;2023-05-07T20:11:58;100608.69;;;6.96;73.02
39699;BME280;25372;50.582;12.250;2023-05-07T20:22:19;100628.59;;;6.75;74.50
39699;BME280;25372;50.582;12.250;2023-05-07T20:32:41;100626.81;;;6.76;73.41
39699;BME280;25372;50.582;12.250;2023-05-07T20:43:02;100642.06;;;7.12;71.43
39699;BME280;25372;50.582;12.250;2023-05-07T20:53:26;100647.75;;;7.23;72.14
39699;BME280;25372;50.582;12.250;2023-05-07T21:03:47;100650.13;;;7.30;72.90
39699;BME280;25372;50.582;12.250;2023-05-07T21:14:13;100651.38;;;6.95;71.92
39699;BME280;25372;50.582;12.250;2023-05-07T21:24:34;100641.81;;;6.43;73.67
39699;BME280;25372;50.582;12.250;2023-05-07T21:34:55;100662.50;;;5.94;78.39
39699;BME280;25372;50.582;12.250;2023-05-07T21:45:16;100664.69;;;5.80;76.36
39699;BME280;25372;50.582;12.250;2023-05-07T21:55:38;100666.88;;;5.34;78.92
39699;BME280;25372;50.582;12.250;2023-05-07T22:05:59;100681.09;;;4.90;81.43
39699;BME280;25372;50.582;12.250;2023-05-07T22:16:21;100672.34;;;4.93;82.00
39699;BME280;25372;50.582;12.250;2023-05-07T22:26:42;100673.97;;;5.58;78.97
39699;BME280;25372;50.582;12.250;2023-05-07T22:37:04;100665.72;;;5.44;80.66
39699;BME280;25372;50.582;12.250;2023-05-07T22:47:27;100668.84;;;5.25;80.84
39699;BME280;25372;50.582;12.250;2023-05-07T22:57:50;100664.28;;;5.34;80.32
39699;BME280;25372;50.582;12.250;2023-05-07T23:08:11;100668.44;;;5.41;81.18
39699;BME280;25372;50.582;12.250;2023-05-07T23:18:33;100664.66;;;5.81;76.85
39699;BME280;25372;50.582;12.250;2023-05-07T23:28:54;100672.81;;;5.69;80.23
39699;BME280;25372;50.582;12.250;2023-05-07T23:39:16;100670.97;;;5.12;79.47
39699;BME280;25372;50.582;12.250;2023-05-07T23:49:37;100668.47;;;4.40;82.84
39699;BME280;25372;50.582;12.250;2023-05-07T23:59:59;100670.97;;;3.70;84.37
